ADDS METAR Data INFO
IDs: Format: Raw Decoded Include TAF

Data at: 1406 UTC 24 Feb 2018

KSJX 241355Z AUTO 00000KT 10SM OVC037 00/M05 A3025 RMK AO2 T00001046
KSJX 241335Z AUTO 00000KT 10SM OVC035 00/M04 A3025 RMK AO2 T10041045
KSJX 241315Z AUTO 00000KT 10SM OVC035 00/M04 A3025 RMK AO2 T10051045
KSJX 241255Z AUTO 00000KT 10SM OVC033 00/M05 A3025 RMK AO2 T10051047
KSJX 241235Z AUTO 20003KT 10SM OVC033 M01/M04 A3024 RMK AO2 T10061045
KSJX 241215Z AUTO 21003KT 10SM OVC031 M01/M05 A3024 RMK AO2 T10061046
KSJX 241155Z AUTO 22003KT 10SM OVC031 M01/M04 A3024 RMK AO2 T10061043 10000 21007
KSJX 241135Z AUTO 00000KT 10SM OVC031 M01/M04 A3024 RMK AO2 T10061044
KSJX 241115Z AUTO 00000KT 10SM OVC029 00/M04 A3024 RMK AO2 T10051042
KSJX 241055Z AUTO 29003KT 10SM OVC029 00/M05 A3025 RMK AO2 T10021046
KSJX 241035Z AUTO 29003KT 10SM OVC029 00/M05 A3024 RMK AO2 T10011049
KSJX 241015Z AUTO 00000KT 10SM OVC029 00/M05 A3024 RMK AO2 T00001050
KSJX 240955Z AUTO 28004KT 10SM OVC029 00/M05 A3024 RMK AO2 T00001051
KSJX 240935Z AUTO 30004KT 10SM OVC029 00/M05 A3024 RMK AO2 T00001046
KSJX 240915Z AUTO 00000KT 10SM OVC031 00/M04 A3024 RMK AO2 T10011039
KSJX 240855Z AUTO 00000KT 10SM OVC031 00/M04 A3024 RMK AO2 T10011042
KSJX 240835Z AUTO 00000KT 10SM OVC029 00/M04 A3024 RMK AO2 T10021041
KSJX 240815Z AUTO 32003KT 10SM OVC027 00/M04 A3024 RMK AO2 T10011039
KSJX 240755Z AUTO 30003KT 10SM OVC027 00/M04 A3024 RMK AO2 T10011038
KSJX 240735Z AUTO 30004KT 10SM OVC027 00/M04 A3024 RMK AO2 T00001042
KSJX 240715Z AUTO 30004KT 10SM OVC027 00/M05 A3025 RMK AO2 T00001047
KSJX 240655Z AUTO 30005KT 10SM OVC025 00/M05 A3024 RMK AO2 T00001048
KSJX 240635Z AUTO 29004KT 10SM OVC025 00/M03 A3024 RMK AO2 T00001035
KSJX 240615Z AUTO 29004KT 10SM OVC027 00/M03 A3023 RMK AO2 T00001035
KSJX 240555Z AUTO 31004KT 10SM OVC029 00/M04 A3023 RMK AO2 T00001040 10015 21001
KSJX 240535Z AUTO 31006KT 10SM OVC031 00/M04 A3022 RMK AO2 T00001040
KSJX 240515Z AUTO 31004KT 10SM OVC031 00/M03 A3022 RMK AO2 T00001033
KSJX 240455Z AUTO 30005KT 10SM OVC031 00/M03 A3021 RMK AO2 T00001030
KSJX 240435Z AUTO 31005KT 10SM OVC033 00/M03 A3021 RMK AO2 T00001028
KSJX 240415Z AUTO 31007KT 10SM BKN035 OVC040 00/M03 A3020 RMK AO2 T00001030
KSJX 240355Z AUTO 31006KT 10SM BKN039 00/M03 A3019 RMK AO2 T10011026 400281022
KSJX 240335Z AUTO 31005KT 10SM OVC041 00/M03 A3019 RMK AO2 T00001027
KSJX 240315Z AUTO 32007KT 280V360 10SM OVC043 00/M03 A3018 RMK AO2 T00001028
KSJX 240255Z AUTO 32007KT 10SM BKN036 OVC042 00/M02 A3018 RMK AO2 T00001024
KSJX 240235Z AUTO 32006KT 10SM OVC036 00/M02 A3017 RMK AO2 T00011021
KSJX 240215Z AUTO 31005KT 10SM SCT007 BKN033 OVC042 00/M01 A3016 RMK AO2 T00021008
KSJX 240155Z AUTO 31005KT 10SM SCT009 BKN022 OVC036 00/00 A3015 RMK AO2 T00031005
KSJX 240135Z AUTO 32005KT 10SM OVC025 00/00 A3015 RMK AO2 T00031005
KSJX 240115Z AUTO 29004KT 10SM SCT013 SCT020 OVC029 01/00 A3014 RMK AO2 T00051005
KSJX 240055Z AUTO 30007KT 10SM SCT011 SCT020 OVC033 01/00 A3013 RMK AO2 T00131002
KSJX 240035Z AUTO 26010G14KT 10SM SCT026 OVC033 01/00 A3012 RMK AO2 T00130000
KSJX 240015Z AUTO 25010KT 10SM OVC031 02/00 A3011 RMK AO2 T00150001
KSJX 232355Z AUTO 24012KT 10SM OVC031 02/00 A3009 RMK AO2 T00150002 10028 20013
KSJX 232335Z AUTO 24013G17KT 10SM BKN028 OVC035 02/00 A3008 RMK AO2 T00150002
KSJX 232315Z AUTO 24012G18KT 10SM SCT014 SCT027 OVC039 02/01 A3006 RMK AO2 T00150005
KSJX 232255Z AUTO 24009KT 7SM BKN016 BKN025 OVC039 01/01 A3005 RMK AO2 T00140005
KSJX 232235Z AUTO 24010KT 10SM SCT022 OVC032 02/00 A3004 RMK AO2 T00150004
KSJX 232215Z AUTO 24011KT 10SM BKN019 OVC032 02/00 A3003 RMK AO2 T00150004
KSJX 232155Z AUTO 24010G14KT 10SM BKN019 OVC023 02/00 A3002 RMK AO2 T00150004
KSJX 232135Z AUTO 24010KT 10SM OVC017 02/00 A3001 RMK AO2 T00150003
KSJX 232115Z AUTO 24013KT 10SM OVC017 02/01 A3001 RMK AO2 T00160005
KSJX 232055Z AUTO 25013KT 10SM OVC013 02/01 A3000 RMK AO2 T00170007
KSJX 232035Z AUTO 25012KT 10SM SCT006 OVC013 02/01 A3000 RMK AO2 T00190010
KSJX 232015Z AUTO 25014G17KT 10SM SCT004 OVC015 02/01 A2999 RMK AO2 T00210011
KSJX 231955Z AUTO 24012G18KT 10SM SCT004 BKN015 OVC040 02/02 A2998 RMK AO2 T00230015
KSJX 231935Z AUTO 24011G18KT 10SM BKN004 BKN014 OVC040 03/02 A2996 RMK AO2 T00270020
KSJX 231915Z AUTO 23013G18KT 10SM BKN004 BKN014 OVC042 03/02 A2996 RMK AO2 T00260021
KSJX 231855Z AUTO 24015G20KT 10SM OVC002 03/02 A2997 RMK AO2 T00250021
KSJX 231835Z AUTO 24011KT 3SM BR OVC002 02/02 A2998 RMK AO2 T00200016
KSJX 231815Z AUTO 24011G16KT 3SM BR OVC002 02/02 A2997 RMK AO2 T00180015
KSJX 231755Z AUTO 23011KT 3SM BR OVC002 02/02 A2998 RMK AO2 T00180015 10018 21007
KSJX 231735Z AUTO 23011G19KT 3SM BR OVC004 02/01 A2998 RMK AO2 T00160012
KSJX 231715Z AUTO 22008G14KT 2 1/2SM BR OVC004 02/01 A2998 RMK AO2 T00170013
KSJX 231655Z AUTO 22008G14KT 1 3/4SM BR OVC004 02/01 A2998 RMK AO2 T00160012
KSJX 231635Z AUTO 21004KT 1 1/2SM BR OVC004 01/01 A2999 RMK AO2 T00110007
KSJX 231615Z AUTO 21005KT 1 3/4SM -SN OVC004 01/01 A3000 RMK AO2 T00100005
KSJX 231555Z AUTO 20004KT 2 1/2SM UP OVC004 01/00 A3000 RMK AO2 T00080003
KSJX 231535Z AUTO 19004KT 4SM -SN OVC006 01/00 A3001 RMK AO2 T00070001
KSJX 231515Z AUTO 20003KT 1 3/4SM -SN OVC006 01/00 A3002 RMK AO2 T00060000
KSJX 231455Z AUTO 18005KT 5SM -SN OVC006 01/00 A3003 RMK AO2 T00060000
KSJX 231435Z AUTO 19004KT 3SM UP OVC006 01/00 A3003 RMK AO2 T00060000
KSJX 231415Z AUTO 17005KT 3SM UP OVC006 01/00 A3004 RMK AO2 T00050000
KSJX 231355Z AUTO 19003KT 5SM UP OVC006 01/00 A3006 RMK AO2 T00050000
KSJX 231335Z AUTO 18004KT 4SM -SN OVC006 00/00 A3006 RMK AO2 T00031001
KSJX 231315Z AUTO 17003KT 3SM -SN BKN006 BKN012 OVC020 00/00 A3008 RMK AO2 T00001005
KSJX 231255Z AUTO 15003KT 3SM -SN SCT006 BKN014 OVC022 00/M01 A3008 RMK AO2 T00001010
KSJX 231235Z AUTO 13005KT 3SM -SN BKN016 OVC024 00/M01 A3007 RMK AO2 T10021012
KSJX 231215Z AUTO 10005KT 4SM -SN BKN016 OVC022 00/M02 A3007 RMK AO2 T10051020
KSJX 231155Z AUTO 10011KT 7SM UP BKN016 OVC027 M01/M03 A3008 RMK AO2 T10091028 11007 21022
KSJX 231135Z AUTO 10012KT 10SM BKN016 OVC027 M01/M04 A3008 RMK AO2 T10111040
KSJX 231115Z AUTO 09012G18KT 10SM SCT016 OVC027 M01/M04 A3010 RMK AO2 T10121043
KSJX 231055Z AUTO 09013G17KT 10SM BKN025 OVC030 M01/M05 A3013 RMK AO2 T10101046
KSJX 231035Z AUTO 10011KT 10SM OVC030 M01/M05 A3015 RMK AO2 T10081054
KSJX 231015Z AUTO 10012G17KT 10SM SCT023 OVC034 M01/M06 A3019 RMK AO2 T10101056
KSJX 230955Z AUTO 11011KT 10SM SCT023 OVC036 M01/M06 A3022 RMK AO2 T10111061
KSJX 230935Z AUTO 10011KT 10SM OVC038 M01/M06 A3024 RMK AO2 T10111065
KSJX 230915Z AUTO 10009KT 10SM OVC038 M01/M07 A3026 RMK AO2 T10111066
KSJX 230855Z AUTO 11004KT 10SM OVC038 M01/M05 A3029 RMK AO2 T10151055
KSJX 230835Z AUTO 11006KT 10SM OVC040 M02/M05 A3030 RMK AO2 T10161053
KSJX 230815Z AUTO 09008KT 10SM OVC046 M02/M05 A3030 RMK AO2 T10181054
KSJX 230755Z AUTO 09007KT 10SM SCT039 BKN048 OVC055 M02/M05 A3032 RMK AO2 T10201055
KSJX 230735Z AUTO 09009KT 10SM SCT050 OVC070 M02/M06 A3032 RMK AO2 T10201061
KSJX 230715Z AUTO 09009KT 10SM BKN060 OVC070 M02/M06 A3033 RMK AO2 T10211062
KSJX 230655Z AUTO 09012KT 10SM OVC070 M02/M06 A3035 RMK AO2 T10211065
KSJX 230635Z AUTO 09011G15KT 10SM OVC070 M02/M06 A3036 RMK AO2 T10221062
KSJX 230615Z AUTO 09013G17KT 10SM OVC070 M02/M06 A3039 RMK AO2 T10211060
KSJX 230555Z AUTO 09013G17KT 10SM BKN070 BKN085 OVC110 M02/M06 A3040 RMK AO2 T10211060 11011 21021
KSJX 230535Z AUTO 09012KT 10SM SCT070 BKN095 BKN110 M02/M06 A3041 RMK AO2 T10201057
KSJX 230515Z AUTO 10010KT 10SM BKN070 OVC085 M02/M05 A3043 RMK AO2 T10201055
KSJX 230455Z AUTO 09012KT 10SM SCT075 OVC080 M02/M05 A3044 RMK AO2 T10201054
KSJX 230435Z AUTO 10010KT 10SM SCT065 OVC075 M02/M05 A3046 RMK AO2 T10171055
KSJX 230415Z AUTO 08008KT 10SM SCT060 BKN075 OVC090 M02/M05 A3047 RMK AO2 T10171051
KSJX 230355Z AUTO 09005KT 10SM BKN075 OVC090 M01/M05 A3048 RMK AO2 T10151050 410051102
KSJX 230335Z AUTO 08006KT 10SM OVC075 M01/M05 A3050 RMK AO2 T10151046
KSJX 230315Z AUTO 09006KT 10SM BKN075 OVC095 M02/M05 A3053 RMK AO2 T10161048
KSJX 230255Z AUTO 12006KT 10SM SCT075 OVC095 M02/M05 A3054 RMK AO2 T10161052
KSJX 230235Z AUTO 10008KT 10SM SCT033 SCT047 OVC095 M02/M05 A3053 RMK AO2 T10171050
KSJX 230215Z AUTO 09007KT 10SM SCT032 BKN048 OVC085 M01/M05 A3054 RMK AO2 T10151050